sensor_id;sensor_type;location;lat;lon;timestamp;temperature;humidity
21849;DHT22;11089;49.852;19.700;2022-11-15T00:00:49;2.10;99.90
21849;DHT22;11089;49.852;19.700;2022-11-15T00:03:53;1.90;99.90
21849;DHT22;11089;49.852;19.700;2022-11-15T00:06:54;2.00;99.90
21849;DHT22;11089;49.852;19.700;2022-11-15T00:09:55;2.00;99.90
21849;DHT22;11089;49.852;19.700;2022-11-15T00:12:56;1.90;99.90
21849;DHT22;11089;49.852;19.700;2022-11-15T00:15:58;2.10;99.90
21849;DHT22;11089;49.852;19.700;2022-11-15T00:18:59;2.10;99.90
21849;DHT22;11089;49.852;19.700;2022-11-15T00:22:00;1.90;99.90
21849;DHT22;11089;49.852;19.700;2022-11-15T00:25:01;2.00;99.90
21849;DHT22;11089;49.852;19.700;2022-11-15T00:28:02;2.00;99.90
21849;DHT22;11089;49.852;19.700;2022-11-15T00:31:06;1.90;99.90
21849;DHT22;11089;49.852;19.700;2022-11-15T00:34:07;2.00;99.90
21849;DHT22;11089;49.852;19.700;2022-11-15T00:37:08;1.90;99.90
21849;DHT22;11089;49.852;19.700;2022-11-15T00:40:11;1.90;99.90
21849;DHT22;11089;49.852;19.700;2022-11-15T00:43:13;1.90;99.90
21849;DHT22;11089;49.852;19.700;2022-11-15T00:46:14;1.90;99.90
21849;DHT22;11089;49.852;19.700;2022-11-15T00:49:15;1.90;99.90
21849;DHT22;11089;49.852;19.700;2022-11-15T00:52:16;1.90;99.90
21849;DHT22;11089;49.852;19.700;2022-11-15T00:55:17;1.90;99.90
21849;DHT22;11089;49.852;19.700;2022-11-15T00:58:19;2.00;99.90
21849;DHT22;11089;49.852;19.700;2022-11-15T01:01:20;2.10;99.90
21849;DHT22;11089;49.852;19.700;2022-11-15T01:04:21;2.20;99.90
21849;DHT22;11089;49.852;19.700;2022-11-15T01:07:22;2.10;99.90
21849;DHT22;11089;49.852;19.700;2022-11-15T01:10:23;2.10;99.90
21849;DHT22;11089;49.852;19.700;2022-11-15T01:13:26;2.00;99.90
21849;DHT22;11089;49.852;19.700;2022-11-15T01:16:29;2.10;99.90
21849;DHT22;11089;49.852;19.700;2022-11-15T01:19:30;1.90;99.90
21849;DHT22;11089;49.852;19.700;2022-11-15T01:22:31;1.80;99.90
21849;DHT22;11089;49.852;19.700;2022-11-15T01:25:32;1.70;99.90
21849;DHT22;11089;49.852;19.700;2022-11-15T01:28:34;1.80;99.90
21849;DHT22;11089;49.852;19.700;2022-11-15T01:31:36;1.80;99.90
21849;DHT22;11089;49.852;19.700;2022-11-15T01:34:36;1.50;99.90
21849;DHT22;11089;49.852;19.700;2022-11-15T01:37:37;1.60;99.90
21849;DHT22;11089;49.852;19.700;2022-11-15T01:40:38;1.50;99.90
21849;DHT22;11089;49.852;19.700;2022-11-15T01:43:39;1.60;99.90
21849;DHT22;11089;49.852;19.700;2022-11-15T01:46:42;1.60;99.90
21849;DHT22;11089;49.852;19.700;2022-11-15T01:50:02;1.50;99.90
21849;DHT22;11089;49.852;19.700;2022-11-15T01:53:04;1.40;99.90
21849;DHT22;11089;49.852;19.700;2022-11-15T01:56:10;1.30;99.90
21849;DHT22;11089;49.852;19.700;2022-11-15T01:59:12;1.30;99.90
21849;DHT22;11089;49.852;19.700;2022-11-15T02:02:13;1.20;99.90
21849;DHT22;11089;49.852;19.700;2022-11-15T02:05:14;1.20;99.90
21849;DHT22;11089;49.852;19.700;2022-11-15T02:08:15;1.30;99.90
21849;DHT22;11089;49.852;19.700;2022-11-15T02:11:20;1.30;99.90
21849;DHT22;11089;49.852;19.700;2022-11-15T02:14:22;1.30;99.90
21849;DHT22;11089;49.852;19.700;2022-11-15T02:17:32;1.20;99.90
21849;DHT22;11089;49.852;19.700;2022-11-15T02:40:58;1.00;99.90
21849;DHT22;11089;49.852;19.700;2022-11-15T02:47:16;1.00;99.90
21849;DHT22;11089;49.852;19.700;2022-11-15T02:50:20;1.10;99.90
21849;DHT22;11089;49.852;19.700;2022-11-15T02:53:26;1.10;99.90
21849;DHT22;11089;49.852;19.700;2022-11-15T02:56:27;1.00;99.90
21849;DHT22;11089;49.852;19.700;2022-11-15T03:12:47;1.00;99.90
21849;DHT22;11089;49.852;19.700;2022-11-15T03:16:20;1.10;99.90
21849;DHT22;11089;49.852;19.700;2022-11-15T03:19:38;1.00;99.90
21849;DHT22;11089;49.852;19.700;2022-11-15T03:22:44;1.10;99.90
21849;DHT22;11089;49.852;19.700;2022-11-15T03:25:48;1.10;99.90
21849;DHT22;11089;49.852;19.700;2022-11-15T03:28:56;1.20;99.90
21849;DHT22;11089;49.852;19.700;2022-11-15T03:32:06;1.20;99.90
21849;DHT22;11089;49.852;19.700;2022-11-15T03:35:29;1.30;99.90
21849;DHT22;11089;49.852;19.700;2022-11-15T03:38:31;1.30;99.90
21849;DHT22;11089;49.852;19.700;2022-11-15T03:42:24;1.40;99.90
21849;DHT22;11089;49.852;19.700;2022-11-15T03:45:05;1.40;99.90
21849;DHT22;11089;49.852;19.700;2022-11-15T03:48:16;1.50;99.90
21849;DHT22;11089;49.852;19.700;2022-11-15T03:51:19;1.50;99.90
21849;DHT22;11089;49.852;19.700;2022-11-15T03:54:20;1.60;99.90
21849;DHT22;11089;49.852;19.700;2022-11-15T03:57:21;1.60;99.90
21849;DHT22;11089;49.852;19.700;2022-11-15T04:00:22;1.60;99.90
21849;DHT22;11089;49.852;19.700;2022-11-15T04:03:23;1.70;99.90
21849;DHT22;11089;49.852;19.700;2022-11-15T04:06:24;1.70;99.90
21849;DHT22;11089;49.852;19.700;2022-11-15T04:09:25;1.80;99.90
21849;DHT22;11089;49.852;19.700;2022-11-15T04:12:26;1.90;99.90
21849;DHT22;11089;49.852;19.700;2022-11-15T04:15:33;1.90;99.90
21849;DHT22;11089;49.852;19.700;2022-11-15T04:18:34;1.90;99.90
21849;DHT22;11089;49.852;19.700;2022-11-15T04:21:35;1.90;99.90
21849;DHT22;11089;49.852;19.700;2022-11-15T04:24:50;2.00;99.90
21849;DHT22;11089;49.852;19.700;2022-11-15T04:27:51;2.00;99.90
21849;DHT22;11089;49.852;19.700;2022-11-15T04:30:52;2.10;99.90
21849;DHT22;11089;49.852;19.700;2022-11-15T04:33:53;2.10;99.90
21849;DHT22;11089;49.852;19.700;2022-11-15T04:36:54;2.10;99.90
21849;DHT22;11089;49.852;19.700;2022-11-15T04:40:09;2.20;99.90
21849;DHT22;11089;49.852;19.700;2022-11-15T04:43:10;2.20;99.90
21849;DHT22;11089;49.852;19.700;2022-11-15T04:46:11;2.30;99.90
21849;DHT22;11089;49.852;19.700;2022-11-15T04:49:12;2.30;99.90
21849;DHT22;11089;49.852;19.700;2022-11-15T04:52:13;2.30;99.90
21849;DHT22;11089;49.852;19.700;2022-11-15T04:55:14;2.40;99.90
21849;DHT22;11089;49.852;19.700;2022-11-15T04:58:15;2.40;99.90
21849;DHT22;11089;49.852;19.700;2022-11-15T05:01:17;2.40;99.90
21849;DHT22;11089;49.852;19.700;2022-11-15T05:04:18;2.40;99.90
21849;DHT22;11089;49.852;19.700;2022-11-15T05:07:22;2.40;99.90
21849;DHT22;11089;49.852;19.700;2022-11-15T05:10:23;2.40;99.90
21849;DHT22;11089;49.852;19.700;2022-11-15T05:13:24;2.40;99.90
21849;DHT22;11089;49.852;19.700;2022-11-15T05:16:25;2.50;99.90
21849;DHT22;11089;49.852;19.700;2022-11-15T05:19:26;2.50;99.90
21849;DHT22;11089;49.852;19.700;2022-11-15T05:22:27;2.50;99.90
21849;DHT22;11089;49.852;19.700;2022-11-15T05:25:28;2.50;99.90
21849;DHT22;11089;49.852;19.700;2022-11-15T05:28:29;2.60;99.90
21849;DHT22;11089;49.852;19.700;2022-11-15T05:31:30;2.60;99.90
21849;DHT22;11089;49.852;19.700;2022-11-15T05:34:32;2.60;99.90
21849;DHT22;11089;49.852;19.700;2022-11-15T05:37:32;2.70;99.90
21849;DHT22;11089;49.852;19.700;2022-11-15T05:40:34;2.80;99.90
21849;DHT22;11089;49.852;19.700;2022-11-15T05:43:36;2.80;99.90
21849;DHT22;11089;49.852;19.700;2022-11-15T05:46:39;2.80;99.90
21849;DHT22;11089;49.852;19.700;2022-11-15T05:49:42;2.80;99.90
21849;DHT22;11089;49.852;19.700;2022-11-15T05:52:45;2.80;99.90
21849;DHT22;11089;49.852;19.700;2022-11-15T05:55:47;2.90;99.90
21849;DHT22;11089;49.852;19.700;2022-11-15T05:58:48;3.00;99.90
21849;DHT22;11089;49.852;19.700;2022-11-15T06:01:49;3.00;99.90
21849;DHT22;11089;49.852;19.700;2022-11-15T06:04:50;3.10;99.90
21849;DHT22;11089;49.852;19.700;2022-11-15T06:07:51;3.10;99.90
21849;DHT22;11089;49.852;19.700;2022-11-15T06:10:51;3.10;99.90
21849;DHT22;11089;49.852;19.700;2022-11-15T06:13:52;3.10;99.90
21849;DHT22;11089;49.852;19.700;2022-11-15T06:16:53;3.10;99.90
21849;DHT22;11089;49.852;19.700;2022-11-15T06:19:54;3.10;99.90
21849;DHT22;11089;49.852;19.700;2022-11-15T06:22:59;3.10;99.90
21849;DHT22;11089;49.852;19.700;2022-11-15T06:26:02;3.10;99.90
21849;DHT22;11089;49.852;19.700;2022-11-15T06:29:04;3.20;99.90
21849;DHT22;11089;49.852;19.700;2022-11-15T06:32:05;3.30;99.90
21849;DHT22;11089;49.852;19.700;2022-11-15T06:35:06;3.40;99.90
21849;DHT22;11089;49.852;19.700;2022-11-15T06:38:09;3.50;99.90
21849;DHT22;11089;49.852;19.700;2022-11-15T06:41:11;3.60;99.90
21849;DHT22;11089;49.852;19.700;2022-11-15T06:44:12;3.60;99.90
21849;DHT22;11089;49.852;19.700;2022-11-15T06:47:13;3.60;99.90
21849;DHT22;11089;49.852;19.700;2022-11-15T06:50:14;3.70;99.90
21849;DHT22;11089;49.852;19.700;2022-11-15T06:53:15;3.80;99.90
21849;DHT22;11089;49.852;19.700;2022-11-15T06:56:16;3.80;99.90
21849;DHT22;11089;49.852;19.700;2022-11-15T06:59:17;3.60;99.90
21849;DHT22;11089;49.852;19.700;2022-11-15T07:02:18;3.60;99.90
21849;DHT22;11089;49.852;19.700;2022-11-15T07:05:19;3.60;99.90
21849;DHT22;11089;49.852;19.700;2022-11-15T07:08:21;3.70;99.90
21849;DHT22;11089;49.852;19.700;2022-11-15T07:11:22;3.70;99.90
21849;DHT22;11089;49.852;19.700;2022-11-15T07:14:23;3.70;99.90
21849;DHT22;11089;49.852;19.700;2022-11-15T07:17:24;3.80;99.90
21849;DHT22;11089;49.852;19.700;2022-11-15T07:20:25;3.80;99.90
21849;DHT22;11089;49.852;19.700;2022-11-15T07:23:25;3.80;99.90
21849;DHT22;11089;49.852;19.700;2022-11-15T07:26:26;3.90;99.90
21849;DHT22;11089;49.852;19.700;2022-11-15T07:29:27;3.80;99.90
21849;DHT22;11089;49.852;19.700;2022-11-15T07:32:28;3.70;99.90
21849;DHT22;11089;49.852;19.700;2022-11-15T07:35:30;3.80;99.90
21849;DHT22;11089;49.852;19.700;2022-11-15T07:38:31;3.90;99.90
21849;DHT22;11089;49.852;19.700;2022-11-15T07:41:32;3.90;99.90
21849;DHT22;11089;49.852;19.700;2022-11-15T07:44:33;4.00;99.90
21849;DHT22;11089;49.852;19.700;2022-11-15T07:47:34;4.00;99.90
21849;DHT22;11089;49.852;19.700;2022-11-15T07:50:35;4.10;99.90
21849;DHT22;11089;49.852;19.700;2022-11-15T07:53:36;4.20;99.90
21849;DHT22;11089;49.852;19.700;2022-11-15T07:56:37;4.20;99.90
21849;DHT22;11089;49.852;19.700;2022-11-15T07:59:39;4.30;99.90
21849;DHT22;11089;49.852;19.700;2022-11-15T08:02:40;4.30;99.90
21849;DHT22;11089;49.852;19.700;2022-11-15T08:05:42;4.60;99.90
21849;DHT22;11089;49.852;19.700;2022-11-15T08:08:43;4.90;99.90
21849;DHT22;11089;49.852;19.700;2022-11-15T08:11:44;5.30;99.90
21849;DHT22;11089;49.852;19.700;2022-11-15T08:14:45;5.50;99.90
21849;DHT22;11089;49.852;19.700;2022-11-15T08:17:46;5.80;99.90
21849;DHT22;11089;49.852;19.700;2022-11-15T08:20:47;6.10;99.90
21849;DHT22;11089;49.852;19.700;2022-11-15T08:23:48;6.40;99.90
21849;DHT22;11089;49.852;19.700;2022-11-15T08:26:49;6.70;99.90
21849;DHT22;11089;49.852;19.700;2022-11-15T08:29:50;7.10;99.90
21849;DHT22;11089;49.852;19.700;2022-11-15T08:32:52;7.50;99.90
21849;DHT22;11089;49.852;19.700;2022-11-15T08:35:56;7.90;99.90
21849;DHT22;11089;49.852;19.700;2022-11-15T08:38:58;8.20;99.90
21849;DHT22;11089;49.852;19.700;2022-11-15T08:41:59;8.50;66.20
21849;DHT22;11089;49.852;19.700;2022-11-15T08:45:00;8.60;8.10
21849;DHT22;11089;49.852;19.700;2022-11-15T08:48:02;8.80;1.00
21849;DHT22;11089;49.852;19.700;2022-11-15T08:51:03;9.00;1.00
21849;DHT22;11089;49.852;19.700;2022-11-15T08:54:05;9.20;1.00
21849;DHT22;11089;49.852;19.700;2022-11-15T08:57:06;9.30;1.00
21849;DHT22;11089;49.852;19.700;2022-11-15T09:00:08;9.50;9.80
21849;DHT22;11089;49.852;19.700;2022-11-15T09:03:09;9.60;1.00
21849;DHT22;11089;49.852;19.700;2022-11-15T09:06:10;9.70;1.00
21849;DHT22;11089;49.852;19.700;2022-11-15T09:09:11;9.80;7.70
21849;DHT22;11089;49.852;19.700;2022-11-15T09:12:12;10.10;1.00
21849;DHT22;11089;49.852;19.700;2022-11-15T09:15:13;10.40;1.00
21849;DHT22;11089;49.852;19.700;2022-11-15T09:18:14;10.70;1.00
21849;DHT22;11089;49.852;19.700;2022-11-15T09:21:15;11.30;1.00
21849;DHT22;11089;49.852;19.700;2022-11-15T09:24:16;11.80;1.00
21849;DHT22;11089;49.852;19.700;2022-11-15T09:27:18;12.40;1.00
21849;DHT22;11089;49.852;19.700;2022-11-15T09:30:19;12.90;1.00
21849;DHT22;11089;49.852;19.700;2022-11-15T09:33:19;12.80;1.00
21849;DHT22;11089;49.852;19.700;2022-11-15T09:36:20;12.50;1.00
21849;DHT22;11089;49.852;19.700;2022-11-15T09:39:21;12.50;99.90
21849;DHT22;11089;49.852;19.700;2022-11-15T09:45:57;13.00;1.00
21849;DHT22;11089;49.852;19.700;2022-11-15T09:49:02;13.30;99.90
21849;DHT22;11089;49.852;19.700;2022-11-15T09:52:03;13.50;99.90
21849;DHT22;11089;49.852;19.700;2022-11-15T09:55:05;13.60;99.90
21849;DHT22;11089;49.852;19.700;2022-11-15T09:58:33;13.70;99.90
21849;DHT22;11089;49.852;19.700;2022-11-15T10:04:51;13.40;20.00
21849;DHT22;11089;49.852;19.700;2022-11-15T10:08:10;13.40;99.90
21849;DHT22;11089;49.852;19.700;2022-11-15T10:11:20;13.30;99.90
21849;DHT22;11089;49.852;19.700;2022-11-15T10:14:25;13.10;99.90
21849;DHT22;11089;49.852;19.700;2022-11-15T10:20:58;13.00;79.40
21849;DHT22;11089;49.852;19.700;2022-11-15T10:23:59;12.90;1.00
21849;DHT22;11089;49.852;19.700;2022-11-15T10:27:00;13.10;56.80
21849;DHT22;11089;49.852;19.700;2022-11-15T10:30:06;13.00;1.00
21849;DHT22;11089;49.852;19.700;2022-11-15T10:33:34;13.10;1.00
21849;DHT22;11089;49.852;19.700;2022-11-15T10:36:36;12.80;1.00
21849;DHT22;11089;49.852;19.700;2022-11-15T10:39:37;12.70;1.00
21849;DHT22;11089;49.852;19.700;2022-11-15T10:42:38;12.70;1.00
21849;DHT22;11089;49.852;19.700;2022-11-15T10:45:39;13.20;1.00
21849;DHT22;11089;49.852;19.700;2022-11-15T10:48:40;13.10;1.00
21849;DHT22;11089;49.852;19.700;2022-11-15T10:55:19;13.50;1.00
21849;DHT22;11089;49.852;19.700;2022-11-15T11:01:45;13.70;48.30
21849;DHT22;11089;49.852;19.700;2022-11-15T11:04:53;13.40;20.40
21849;DHT22;11089;49.852;19.700;2022-11-15T11:11:08;13.40;94.60
21849;DHT22;11089;49.852;19.700;2022-11-15T11:14:19;13.50;99.90
21849;DHT22;11089;49.852;19.700;2022-11-15T11:20:38;13.30;1.00
21849;DHT22;11089;49.852;19.700;2022-11-15T11:23:51;13.30;99.90
21849;DHT22;11089;49.852;19.700;2022-11-15T11:26:59;13.20;99.90
21849;DHT22;11089;49.852;19.700;2022-11-15T11:49:52;12.70;99.90
21849;DHT22;11089;49.852;19.700;2022-11-15T11:56:23;12.60;1.00
21849;DHT22;11089;49.852;19.700;2022-11-15T11:59:39;12.50;1.00
21849;DHT22;11089;49.852;19.700;2022-11-15T12:02:50;12.30;99.90
21849;DHT22;11089;49.852;19.700;2022-11-15T12:13:18;12.10;1.00
21849;DHT22;11089;49.852;19.700;2022-11-15T12:16:29;12.10;1.00
21849;DHT22;11089;49.852;19.700;2022-11-15T12:19:30;12.00;1.00
21849;DHT22;11089;49.852;19.700;2022-11-15T12:26:00;12.00;1.00
21849;DHT22;11089;49.852;19.700;2022-11-15T12:29:15;12.10;1.00
21849;DHT22;11089;49.852;19.700;2022-11-15T12:32:29;12.10;1.00
21849;DHT22;11089;49.852;19.700;2022-11-15T12:35:41;12.10;1.00
21849;DHT22;11089;49.852;19.700;2022-11-15T12:39:06;12.10;1.00
21849;DHT22;11089;49.852;19.700;2022-11-15T12:45:23;12.00;1.00
21849;DHT22;11089;49.852;19.700;2022-11-15T12:54:50;11.80;1.00
21849;DHT22;11089;49.852;19.700;2022-11-15T12:57:52;11.80;99.90
21849;DHT22;11089;49.852;19.700;2022-11-15T13:00:53;11.70;1.00
21849;DHT22;11089;49.852;19.700;2022-11-15T13:10:40;11.50;1.00
21849;DHT22;11089;49.852;19.700;2022-11-15T13:13:45;11.50;1.00
21849;DHT22;11089;49.852;19.700;2022-11-15T13:16:46;11.40;1.00
21849;DHT22;11089;49.852;19.700;2022-11-15T13:23:14;11.40;1.00
21849;DHT22;11089;49.852;19.700;2022-11-15T13:26:16;11.30;99.90
21849;DHT22;11089;49.852;19.700;2022-11-15T13:29:19;11.30;99.90
21849;DHT22;11089;49.852;19.700;2022-11-15T13:32:21;11.20;1.00
21849;DHT22;11089;49.852;19.700;2022-11-15T13:35:25;11.10;99.90
21849;DHT22;11089;49.852;19.700;2022-11-15T13:38:30;11.00;99.90
21849;DHT22;11089;49.852;19.700;2022-11-15T13:41:34;10.90;1.00
21849;DHT22;11089;49.852;19.700;2022-11-15T13:44:35;10.90;44.30
21849;DHT22;11089;49.852;19.700;2022-11-15T13:47:36;11.00;99.90
21849;DHT22;11089;49.852;19.700;2022-11-15T13:50:38;11.00;1.00
21849;DHT22;11089;49.852;19.700;2022-11-15T13:53:42;10.90;99.90
21849;DHT22;11089;49.852;19.700;2022-11-15T13:57:01;10.90;99.90
21849;DHT22;11089;49.852;19.700;2022-11-15T14:00:19;10.80;99.90
21849;DHT22;11089;49.852;19.700;2022-11-15T14:03:28;10.70;1.00
21849;DHT22;11089;49.852;19.700;2022-11-15T14:06:30;10.70;99.90
21849;DHT22;11089;49.852;19.700;2022-11-15T14:12:57;10.80;1.00
21849;DHT22;11089;49.852;19.700;2022-11-15T14:16:21;10.80;99.90
21849;DHT22;11089;49.852;19.700;2022-11-15T14:22:27;10.60;1.00
21849;DHT22;11089;49.852;19.700;2022-11-15T14:25:30;10.60;99.90
21849;DHT22;11089;49.852;19.700;2022-11-15T14:28:33;10.40;99.90
21849;DHT22;11089;49.852;19.700;2022-11-15T14:31:37;10.40;1.00
21849;DHT22;11089;49.852;19.700;2022-11-15T14:34:41;10.40;1.00
21849;DHT22;11089;49.852;19.700;2022-11-15T14:37:42;10.40;1.00
21849;DHT22;11089;49.852;19.700;2022-11-15T14:40:44;10.40;1.00
21849;DHT22;11089;49.852;19.700;2022-11-15T14:43:45;10.40;99.90
21849;DHT22;11089;49.852;19.700;2022-11-15T14:46:46;10.30;1.00
21849;DHT22;11089;49.852;19.700;2022-11-15T14:49:48;10.20;99.90
21849;DHT22;11089;49.852;19.700;2022-11-15T14:52:49;10.10;99.90
21849;DHT22;11089;49.852;19.700;2022-11-15T14:55:50;10.10;99.90
21849;DHT22;11089;49.852;19.700;2022-11-15T14:58:51;10.00;1.00
21849;DHT22;11089;49.852;19.700;2022-11-15T15:01:52;10.10;99.90
21849;DHT22;11089;49.852;19.700;2022-11-15T15:04:53;10.00;1.00
21849;DHT22;11089;49.852;19.700;2022-11-15T15:07:54;9.90;1.00
21849;DHT22;11089;49.852;19.700;2022-11-15T15:10:55;9.90;99.90
21849;DHT22;11089;49.852;19.700;2022-11-15T15:13:56;9.80;99.90
21849;DHT22;11089;49.852;19.700;2022-11-15T15:16:58;9.70;99.90
21849;DHT22;11089;49.852;19.700;2022-11-15T15:19:59;9.50;1.00
21849;DHT22;11089;49.852;19.700;2022-11-15T15:23:00;9.60;1.00
21849;DHT22;11089;49.852;19.700;2022-11-15T15:26:01;9.60;1.00
21849;DHT22;11089;49.852;19.700;2022-11-15T15:29:02;9.60;1.00
21849;DHT22;11089;49.852;19.700;2022-11-15T15:32:03;9.60;99.90
21849;DHT22;11089;49.852;19.700;2022-11-15T15:35:05;9.50;1.00
21849;DHT22;11089;49.852;19.700;2022-11-15T15:38:06;9.60;99.90
21849;DHT22;11089;49.852;19.700;2022-11-15T15:41:14;9.40;1.00
21849;DHT22;11089;49.852;19.700;2022-11-15T15:44:15;9.30;1.00
21849;DHT22;11089;49.852;19.700;2022-11-15T15:47:20;9.30;1.00
21849;DHT22;11089;49.852;19.700;2022-11-15T15:50:24;9.30;1.00
21849;DHT22;11089;49.852;19.700;2022-11-15T15:53:25;9.30;1.00
21849;DHT22;11089;49.852;19.700;2022-11-15T15:56:26;9.20;1.00
21849;DHT22;11089;49.852;19.700;2022-11-15T15:59:28;9.20;99.90
21849;DHT22;11089;49.852;19.700;2022-11-15T16:02:29;9.20;1.00
21849;DHT22;11089;49.852;19.700;2022-11-15T16:05:30;9.20;1.00
21849;DHT22;11089;49.852;19.700;2022-11-15T16:08:31;9.10;1.00
21849;DHT22;11089;49.852;19.700;2022-11-15T16:11:32;9.10;1.00
21849;DHT22;11089;49.852;19.700;2022-11-15T16:14:33;9.10;1.00
21849;DHT22;11089;49.852;19.700;2022-11-15T16:17:38;9.00;73.00
21849;DHT22;11089;49.852;19.700;2022-11-15T16:20:42;9.00;1.00
21849;DHT22;11089;49.852;19.700;2022-11-15T16:23:44;9.00;99.90
21849;DHT22;11089;49.852;19.700;2022-11-15T16:26:47;9.00;1.00
21849;DHT22;11089;49.852;19.700;2022-11-15T16:29:49;9.00;1.00
21849;DHT22;11089;49.852;19.700;2022-11-15T16:32:50;9.00;1.00
21849;DHT22;11089;49.852;19.700;2022-11-15T16:35:51;8.90;99.90
21849;DHT22;11089;49.852;19.700;2022-11-15T16:38:52;8.80;99.90
21849;DHT22;11089;49.852;19.700;2022-11-15T16:41:53;8.80;99.90
21849;DHT22;11089;49.852;19.700;2022-11-15T16:44:54;8.90;99.90
21849;DHT22;11089;49.852;19.700;2022-11-15T16:47:55;8.90;1.00
21849;DHT22;11089;49.852;19.700;2022-11-15T16:50:57;8.90;1.00
21849;DHT22;11089;49.852;19.700;2022-11-15T16:53:59;8.90;24.10
21849;DHT22;11089;49.852;19.700;2022-11-15T16:56:59;8.90;99.90
21849;DHT22;11089;49.852;19.700;2022-11-15T17:00:00;8.90;99.90
21849;DHT22;11089;49.852;19.700;2022-11-15T17:03:01;8.90;1.00
21849;DHT22;11089;49.852;19.700;2022-11-15T17:06:03;8.70;1.00
21849;DHT22;11089;49.852;19.700;2022-11-15T17:09:04;8.80;1.00
21849;DHT22;11089;49.852;19.700;2022-11-15T17:12:06;8.80;1.00
21849;DHT22;11089;49.852;19.700;2022-11-15T17:15:11;8.80;1.00
21849;DHT22;11089;49.852;19.700;2022-11-15T17:18:12;8.80;1.00
21849;DHT22;11089;49.852;19.700;2022-11-15T17:21:19;8.70;99.90
21849;DHT22;11089;49.852;19.700;2022-11-15T17:24:20;8.70;99.90
21849;DHT22;11089;49.852;19.700;2022-11-15T17:27:21;8.60;99.90
21849;DHT22;11089;49.852;19.700;2022-11-15T17:30:23;8.70;99.90
21849;DHT22;11089;49.852;19.700;2022-11-15T17:33:24;8.70;86.20
21849;DHT22;11089;49.852;19.700;2022-11-15T17:36:26;8.70;99.90
21849;DHT22;11089;49.852;19.700;2022-11-15T17:39:27;8.70;99.90
21849;DHT22;11089;49.852;19.700;2022-11-15T17:42:28;8.70;99.90
21849;DHT22;11089;49.852;19.700;2022-11-15T17:45:28;8.70;65.90
21849;DHT22;11089;49.852;19.700;2022-11-15T17:48:30;8.70;99.90
21849;DHT22;11089;49.852;19.700;2022-11-15T17:51:31;8.70;99.90
21849;DHT22;11089;49.852;19.700;2022-11-15T17:54:32;8.70;99.90
21849;DHT22;11089;49.852;19.700;2022-11-15T17:57:33;8.70;1.00
21849;DHT22;11089;49.852;19.700;2022-11-15T18:00:34;8.70;99.90
21849;DHT22;11089;49.852;19.700;2022-11-15T18:03:38;8.80;99.90
21849;DHT22;11089;49.852;19.700;2022-11-15T18:06:38;8.80;1.00
21849;DHT22;11089;49.852;19.700;2022-11-15T18:09:39;8.80;99.90
21849;DHT22;11089;49.852;19.700;2022-11-15T18:12:43;8.70;1.00
21849;DHT22;11089;49.852;19.700;2022-11-15T18:15:53;8.60;1.00
21849;DHT22;11089;49.852;19.700;2022-11-15T18:18:55;8.70;1.00
21849;DHT22;11089;49.852;19.700;2022-11-15T18:21:56;8.70;99.90
21849;DHT22;11089;49.852;19.700;2022-11-15T18:24:57;8.60;1.00
21849;DHT22;11089;49.852;19.700;2022-11-15T18:27:58;8.60;1.00
21849;DHT22;11089;49.852;19.700;2022-11-15T18:30:59;8.70;99.90
21849;DHT22;11089;49.852;19.700;2022-11-15T18:34:00;8.70;99.90
21849;DHT22;11089;49.852;19.700;2022-11-15T18:37:02;8.60;1.00
21849;DHT22;11089;49.852;19.700;2022-11-15T18:40:03;8.60;1.00
21849;DHT22;11089;49.852;19.700;2022-11-15T18:43:04;8.60;1.00
21849;DHT22;11089;49.852;19.700;2022-11-15T18:46:10;8.60;1.00
21849;DHT22;11089;49.852;19.700;2022-11-15T18:49:13;8.60;1.00
21849;DHT22;11089;49.852;19.700;2022-11-15T18:52:16;8.50;1.00
21849;DHT22;11089;49.852;19.700;2022-11-15T18:55:16;8.50;1.00
21849;DHT22;11089;49.852;19.700;2022-11-15T18:58:17;8.60;1.00
21849;DHT22;11089;49.852;19.700;2022-11-15T19:01:23;8.50;1.00
21849;DHT22;11089;49.852;19.700;2022-11-15T19:04:24;8.60;1.00
21849;DHT22;11089;49.852;19.700;2022-11-15T19:07:25;8.50;1.00
21849;DHT22;11089;49.852;19.700;2022-11-15T19:10:26;8.50;1.00
21849;DHT22;11089;49.852;19.700;2022-11-15T19:13:27;8.60;1.00
21849;DHT22;11089;49.852;19.700;2022-11-15T19:16:29;8.60;1.00
21849;DHT22;11089;49.852;19.700;2022-11-15T19:19:31;8.60;99.90
21849;DHT22;11089;49.852;19.700;2022-11-15T19:22:32;8.70;99.90
21849;DHT22;11089;49.852;19.700;2022-11-15T19:25:33;8.70;1.00
21849;DHT22;11089;49.852;19.700;2022-11-15T19:28:34;8.70;1.00
21849;DHT22;11089;49.852;19.700;2022-11-15T19:31:35;8.70;1.00
21849;DHT22;11089;49.852;19.700;2022-11-15T19:34:36;8.70;1.00
21849;DHT22;11089;49.852;19.700;2022-11-15T19:37:41;8.70;1.00
21849;DHT22;11089;49.852;19.700;2022-11-15T19:40:42;8.70;1.00
21849;DHT22;11089;49.852;19.700;2022-11-15T19:43:43;8.70;1.00
21849;DHT22;11089;49.852;19.700;2022-11-15T19:46:44;8.70;1.00
21849;DHT22;11089;49.852;19.700;2022-11-15T19:49:45;8.70;1.00
21849;DHT22;11089;49.852;19.700;2022-11-15T19:52:46;8.70;1.00
21849;DHT22;11089;49.852;19.700;2022-11-15T19:55:54;8.70;42.50
21849;DHT22;11089;49.852;19.700;2022-11-15T19:58:55;8.70;46.50
21849;DHT22;11089;49.852;19.700;2022-11-15T20:01:56;8.70;99.90
21849;DHT22;11089;49.852;19.700;2022-11-15T20:04:57;8.70;99.90
21849;DHT22;11089;49.852;19.700;2022-11-15T20:07:58;8.60;99.90
21849;DHT22;11089;49.852;19.700;2022-11-15T20:11:00;8.60;99.90
21849;DHT22;11089;49.852;19.700;2022-11-15T20:14:01;8.50;99.90
21849;DHT22;11089;49.852;19.700;2022-11-15T20:17:02;8.50;99.90
21849;DHT22;11089;49.852;19.700;2022-11-15T20:20:03;8.50;99.90
21849;DHT22;11089;49.852;19.700;2022-11-15T20:23:05;8.50;99.90
21849;DHT22;11089;49.852;19.700;2022-11-15T20:26:06;8.50;99.90
21849;DHT22;11089;49.852;19.700;2022-11-15T20:29:07;8.50;99.90
21849;DHT22;11089;49.852;19.700;2022-11-15T20:32:10;8.50;99.90
21849;DHT22;11089;49.852;19.700;2022-11-15T20:35:10;8.50;99.90
21849;DHT22;11089;49.852;19.700;2022-11-15T20:38:11;8.60;99.90
21849;DHT22;11089;49.852;19.700;2022-11-15T20:41:13;8.50;99.90
21849;DHT22;11089;49.852;19.700;2022-11-15T20:44:14;8.50;99.90
21849;DHT22;11089;49.852;19.700;2022-11-15T20:47:15;8.50;99.90
21849;DHT22;11089;49.852;19.700;2022-11-15T20:50:16;8.50;99.90
21849;DHT22;11089;49.852;19.700;2022-11-15T20:53:18;8.50;99.90
21849;DHT22;11089;49.852;19.700;2022-11-15T20:56:21;8.50;99.90
21849;DHT22;11089;49.852;19.700;2022-11-15T20:59:22;8.50;99.90
21849;DHT22;11089;49.852;19.700;2022-11-15T21:02:23;8.50;99.90
21849;DHT22;11089;49.852;19.700;2022-11-15T21:05:24;8.50;99.90
21849;DHT22;11089;49.852;19.700;2022-11-15T21:08:25;8.40;99.90
21849;DHT22;11089;49.852;19.700;2022-11-15T21:11:26;8.50;99.90
21849;DHT22;11089;49.852;19.700;2022-11-15T21:14:42;8.50;99.90
21849;DHT22;11089;49.852;19.700;2022-11-15T21:17:47;8.50;99.90